sensor_id;sensor_type;location;lat;lon;timestamp;pressure;altitude;pressure_sealevel;temperature;humidity
74334;BME280;62753;40.394;-80.022;2023-11-21T00:00:10;98120.98;;;8.75;35.93
74334;BME280;62753;40.394;-80.022;2023-11-21T00:02:29;98126.27;;;8.91;35.34
74334;BME280;62753;40.394;-80.022;2023-11-21T00:04:55;98122.45;;;8.82;35.68
74334;BME280;62753;40.394;-80.022;2023-11-21T00:07:20;98117.22;;;8.09;36.99
74334;BME280;62753;40.394;-80.022;2023-11-21T00:09:46;98110.77;;;9.01;35.63
74334;BME280;62753;40.394;-80.022;2023-11-21T00:12:11;98102.19;;;9.18;35.26
74334;BME280;62753;40.394;-80.022;2023-11-21T00:14:37;98110.18;;;8.98;35.89
74334;BME280;62753;40.394;-80.022;2023-11-21T00:17:04;98112.34;;;9.22;35.27
74334;BME280;62753;40.394;-80.022;2023-11-21T00:19:28;98111.78;;;9.13;35.30
74334;BME280;62753;40.394;-80.022;2023-11-21T00:21:53;98115.94;;;9.21;35.48
74334;BME280;62753;40.394;-80.022;2023-11-21T00:24:19;98117.30;;;8.88;35.87
74334;BME280;62753;40.394;-80.022;2023-11-21T00:26:44;98112.53;;;9.22;35.72
74334;BME280;62753;40.394;-80.022;2023-11-21T00:29:10;98108.09;;;8.91;36.21
74334;BME280;62753;40.394;-80.022;2023-11-21T00:31:35;98112.58;;;8.58;36.66
74334;BME280;62753;40.394;-80.022;2023-11-21T00:34:02;98108.60;;;8.56;36.84
74334;BME280;62753;40.394;-80.022;2023-11-21T00:36:26;98111.75;;;9.22;36.04
74334;BME280;62753;40.394;-80.022;2023-11-21T00:38:52;98125.36;;;9.13;36.27
74334;BME280;62753;40.394;-80.022;2023-11-21T00:41:17;98125.75;;;9.39;36.09
74334;BME280;62753;40.394;-80.022;2023-11-21T00:43:42;98121.01;;;9.77;35.42
74334;BME280;62753;40.394;-80.022;2023-11-21T00:46:08;98113.22;;;8.99;35.76
74334;BME280;62753;40.394;-80.022;2023-11-21T00:48:33;98108.15;;;9.09;35.93
74334;BME280;62753;40.394;-80.022;2023-11-21T00:50:58;98117.32;;;8.93;36.91
74334;BME280;62753;40.394;-80.022;2023-11-21T00:53:23;98117.64;;;9.02;36.21
74334;BME280;62753;40.394;-80.022;2023-11-21T00:55:48;98119.60;;;8.94;36.14
74334;BME280;62753;40.394;-80.022;2023-11-21T00:58:14;98114.46;;;8.89;36.67
74334;BME280;62753;40.394;-80.022;2023-11-21T01:00:40;98106.44;;;8.48;37.00
74334;BME280;62753;40.394;-80.022;2023-11-21T01:03:05;98100.24;;;8.00;38.00
74334;BME280;62753;40.394;-80.022;2023-11-21T01:05:31;98097.49;;;7.99;38.42
74334;BME280;62753;40.394;-80.022;2023-11-21T01:07:57;98091.72;;;8.41;37.74
74334;BME280;62753;40.394;-80.022;2023-11-21T01:10:21;98081.41;;;8.02;38.49
74334;BME280;62753;40.394;-80.022;2023-11-21T01:12:47;98071.22;;;7.91;38.15
74334;BME280;62753;40.394;-80.022;2023-11-21T01:15:12;98064.26;;;8.50;37.87
74334;BME280;62753;40.394;-80.022;2023-11-21T01:17:38;98061.26;;;7.53;39.14
74334;BME280;62753;40.394;-80.022;2023-11-21T01:20:04;98060.64;;;8.27;38.01
74334;BME280;62753;40.394;-80.022;2023-11-21T01:22:28;98060.56;;;7.61;39.34
74334;BME280;62753;40.394;-80.022;2023-11-21T01:24:54;98047.72;;;7.92;38.84
74334;BME280;62753;40.394;-80.022;2023-11-21T01:27:19;98044.53;;;7.73;39.57
74334;BME280;62753;40.394;-80.022;2023-11-21T01:29:44;98033.83;;;8.06;38.94
74334;BME280;62753;40.394;-80.022;2023-11-21T01:32:10;98033.08;;;8.26;38.91
74334;BME280;62753;40.394;-80.022;2023-11-21T01:34:35;98025.09;;;6.78;40.20
74334;BME280;62753;40.394;-80.022;2023-11-21T01:37:01;98026.62;;;7.90;39.28
74334;BME280;62753;40.394;-80.022;2023-11-21T01:39:26;98032.62;;;8.09;39.15
74334;BME280;62753;40.394;-80.022;2023-11-21T01:41:52;98032.72;;;7.55;39.05
74334;BME280;62753;40.394;-80.022;2023-11-21T01:44:17;98036.10;;;7.76;39.08
74334;BME280;62753;40.394;-80.022;2023-11-21T01:46:43;98025.57;;;7.55;39.76
74334;BME280;62753;40.394;-80.022;2023-11-21T01:49:09;98020.00;;;7.98;39.26
74334;BME280;62753;40.394;-80.022;2023-11-21T01:51:34;98015.13;;;7.61;40.07
74334;BME280;62753;40.394;-80.022;2023-11-21T01:53:59;98016.74;;;7.39;40.55
74334;BME280;62753;40.394;-80.022;2023-11-21T01:56:25;98021.54;;;7.15;40.21
74334;BME280;62753;40.394;-80.022;2023-11-21T01:58:50;98018.98;;;7.43;40.08
74334;BME280;62753;40.394;-80.022;2023-11-21T02:01:15;98016.66;;;7.64;39.39
74334;BME280;62753;40.394;-80.022;2023-11-21T02:03:41;98012.18;;;7.70;38.92
74334;BME280;62753;40.394;-80.022;2023-11-21T02:06:07;98007.82;;;7.66;39.05
74334;BME280;62753;40.394;-80.022;2023-11-21T02:08:31;98008.56;;;7.74;39.06
74334;BME280;62753;40.394;-80.022;2023-11-21T02:10:56;98009.78;;;8.00;38.62
74334;BME280;62753;40.394;-80.022;2023-11-21T02:13:22;98015.19;;;7.92;38.29
74334;BME280;62753;40.394;-80.022;2023-11-21T02:15:47;98018.48;;;7.54;38.85
74334;BME280;62753;40.394;-80.022;2023-11-21T02:18:13;98029.88;;;7.82;38.52
74334;BME280;62753;40.394;-80.022;2023-11-21T02:20:38;98036.10;;;8.04;37.44
74334;BME280;62753;40.394;-80.022;2023-11-21T02:23:04;98036.38;;;8.27;37.88
74334;BME280;62753;40.394;-80.022;2023-11-21T02:25:30;98043.04;;;7.48;38.67
74334;BME280;62753;40.394;-80.022;2023-11-21T02:27:55;98044.73;;;7.67;38.56
74334;BME280;62753;40.394;-80.022;2023-11-21T02:30:20;98043.57;;;8.07;37.67
74334;BME280;62753;40.394;-80.022;2023-11-21T02:32:45;98043.86;;;8.16;38.16
74334;BME280;62753;40.394;-80.022;2023-11-21T02:35:12;98053.19;;;7.22;38.30
74334;BME280;62753;40.394;-80.022;2023-11-21T02:37:37;98062.19;;;7.88;37.68
74334;BME280;62753;40.394;-80.022;2023-11-21T02:40:01;98073.80;;;7.89;37.72
74334;BME280;62753;40.394;-80.022;2023-11-21T02:42:27;98083.59;;;7.97;37.39
74334;BME280;62753;40.394;-80.022;2023-11-21T02:44:52;98090.01;;;8.48;36.36
74334;BME280;62753;40.394;-80.022;2023-11-21T02:47:17;98091.82;;;8.75;35.72
74334;BME280;62753;40.394;-80.022;2023-11-21T02:49:43;98090.51;;;8.23;36.85
74334;BME280;62753;40.394;-80.022;2023-11-21T02:52:08;98088.20;;;8.47;35.85
74334;BME280;62753;40.394;-80.022;2023-11-21T02:54:34;98091.06;;;8.50;36.20
74334;BME280;62753;40.394;-80.022;2023-11-21T02:56:59;98091.02;;;8.42;36.44
74334;BME280;62753;40.394;-80.022;2023-11-21T02:59:25;98087.46;;;8.49;36.21
74334;BME280;62753;40.394;-80.022;2023-11-21T03:01:51;98100.22;;;8.75;35.79
74334;BME280;62753;40.394;-80.022;2023-11-21T03:04:16;98100.95;;;8.74;35.55
74334;BME280;62753;40.394;-80.022;2023-11-21T03:06:41;98100.71;;;7.88;36.86
74334;BME280;62753;40.394;-80.022;2023-11-21T03:09:07;98104.91;;;8.04;36.09
74334;BME280;62753;40.394;-80.022;2023-11-21T03:11:32;98106.79;;;8.68;35.49
74334;BME280;62753;40.394;-80.022;2023-11-21T03:13:58;98097.84;;;8.10;36.67
74334;BME280;62753;40.394;-80.022;2023-11-21T03:16:24;98096.77;;;7.95;37.49
74334;BME280;62753;40.394;-80.022;2023-11-21T03:18:48;98097.19;;;8.39;36.70
74334;BME280;62753;40.394;-80.022;2023-11-21T03:21:14;98087.40;;;8.18;36.88
74334;BME280;62753;40.394;-80.022;2023-11-21T03:23:39;98085.45;;;8.15;37.23
74334;BME280;62753;40.394;-80.022;2023-11-21T03:26:04;98082.99;;;8.19;36.98
74334;BME280;62753;40.394;-80.022;2023-11-21T03:28:31;98084.05;;;8.47;36.26
74334;BME280;62753;40.394;-80.022;2023-11-21T03:30:56;98080.30;;;7.47;37.87
74334;BME280;62753;40.394;-80.022;2023-11-21T03:33:21;98080.53;;;7.85;37.79
74334;BME280;62753;40.394;-80.022;2023-11-21T03:35:47;98083.71;;;7.91;37.36
74334;BME280;62753;40.394;-80.022;2023-11-21T03:38:12;98083.76;;;7.24;38.02
74334;BME280;62753;40.394;-80.022;2023-11-21T03:40:38;98092.07;;;6.91;38.39
74334;BME280;62753;40.394;-80.022;2023-11-21T03:43:02;98087.38;;;7.70;37.48
74334;BME280;62753;40.394;-80.022;2023-11-21T03:45:28;98089.74;;;7.86;37.40
74334;BME280;62753;40.394;-80.022;2023-11-21T03:47:54;98092.68;;;8.19;36.55
74334;BME280;62753;40.394;-80.022;2023-11-21T03:50:19;98098.65;;;8.34;36.56
74334;BME280;62753;40.394;-80.022;2023-11-21T03:52:45;98103.45;;;8.37;36.01
74334;BME280;62753;40.394;-80.022;2023-11-21T03:55:11;98100.06;;;8.55;35.66
74334;BME280;62753;40.394;-80.022;2023-11-21T03:57:36;98097.02;;;9.03;34.68
74334;BME280;62753;40.394;-80.022;2023-11-21T04:00:03;98095.29;;;8.64;35.83
74334;BME280;62753;40.394;-80.022;2023-11-21T04:02:28;98088.92;;;8.65;35.28
74334;BME280;62753;40.394;-80.022;2023-11-21T04:04:53;98080.30;;;8.40;35.69
74334;BME280;62753;40.394;-80.022;2023-11-21T04:07:18;98076.61;;;8.88;34.14
74334;BME280;62753;40.394;-80.022;2023-11-21T04:09:44;98072.12;;;8.60;35.15
74334;BME280;62753;40.394;-80.022;2023-11-21T04:12:09;98067.75;;;8.72;35.88
74334;BME280;62753;40.394;-80.022;2023-11-21T04:14:34;98071.45;;;8.27;36.30
74334;BME280;62753;40.394;-80.022;2023-11-21T04:17:00;98067.89;;;8.61;36.74
74334;BME280;62753;40.394;-80.022;2023-11-21T04:19:25;98058.22;;;7.80;37.06
74334;BME280;62753;40.394;-80.022;2023-11-21T04:21:50;98052.53;;;7.31;38.56
74334;BME280;62753;40.394;-80.022;2023-11-21T04:24:16;98046.28;;;6.99;39.08
74334;BME280;62753;40.394;-80.022;2023-11-21T04:26:41;98047.46;;;7.28;39.24
74334;BME280;62753;40.394;-80.022;2023-11-21T04:29:07;98044.44;;;7.11;39.84
74334;BME280;62753;40.394;-80.022;2023-11-21T04:31:32;98040.95;;;7.47;38.97
74334;BME280;62753;40.394;-80.022;2023-11-21T04:33:58;98037.93;;;7.28;39.54
74334;BME280;62753;40.394;-80.022;2023-11-21T04:36:24;98037.01;;;6.28;40.22
74334;BME280;62753;40.394;-80.022;2023-11-21T04:38:49;98034.50;;;7.30;38.90
74334;BME280;62753;40.394;-80.022;2023-11-21T04:41:15;98028.33;;;7.18;38.30
74334;BME280;62753;40.394;-80.022;2023-11-21T04:43:40;98026.15;;;7.38;38.14
74334;BME280;62753;40.394;-80.022;2023-11-21T04:46:06;98019.43;;;7.19;38.86
74334;BME280;62753;40.394;-80.022;2023-11-21T04:48:31;98029.78;;;7.76;38.03
74334;BME280;62753;40.394;-80.022;2023-11-21T04:50:57;98037.41;;;7.72;37.76
74334;BME280;62753;40.394;-80.022;2023-11-21T04:53:23;98033.29;;;8.11;36.75
74334;BME280;62753;40.394;-80.022;2023-11-21T04:55:47;98034.10;;;8.41;36.26
74334;BME280;62753;40.394;-80.022;2023-11-21T04:58:13;98037.91;;;8.49;35.69
74334;BME280;62753;40.394;-80.022;2023-11-21T05:00:39;98043.36;;;8.33;36.62
74334;BME280;62753;40.394;-80.022;2023-11-21T05:03:04;98037.61;;;7.84;36.79
74334;BME280;62753;40.394;-80.022;2023-11-21T05:05:30;98028.18;;;8.24;36.60
74334;BME280;62753;40.394;-80.022;2023-11-21T05:07:55;98020.94;;;8.41;36.52
74334;BME280;62753;40.394;-80.022;2023-11-21T05:10:22;98015.44;;;7.86;36.87
74334;BME280;62753;40.394;-80.022;2023-11-21T05:12:46;98027.21;;;7.55;37.64
74334;BME280;62753;40.394;-80.022;2023-11-21T05:15:15;98018.94;;;8.15;37.04
74334;BME280;62753;40.394;-80.022;2023-11-21T05:17:37;98017.21;;;7.80;38.36
74334;BME280;62753;40.394;-80.022;2023-11-21T05:20:04;98016.11;;;7.64;38.16
74334;BME280;62753;40.394;-80.022;2023-11-21T05:22:28;98009.85;;;7.68;37.97
74334;BME280;62753;40.394;-80.022;2023-11-21T05:24:54;98005.00;;;7.17;37.97
74334;BME280;62753;40.394;-80.022;2023-11-21T05:27:19;98018.17;;;7.47;37.96
74334;BME280;62753;40.394;-80.022;2023-11-21T05:29:45;98023.81;;;7.51;37.67
74334;BME280;62753;40.394;-80.022;2023-11-21T05:32:11;98018.54;;;7.54;37.90
74334;BME280;62753;40.394;-80.022;2023-11-21T05:34:36;98009.69;;;8.00;37.24
74334;BME280;62753;40.394;-80.022;2023-11-21T05:37:01;98009.35;;;8.63;36.66
74334;BME280;62753;40.394;-80.022;2023-11-21T05:39:27;98011.14;;;7.90;36.43
74334;BME280;62753;40.394;-80.022;2023-11-21T05:41:52;98011.17;;;8.36;36.40
74334;BME280;62753;40.394;-80.022;2023-11-21T05:44:17;98006.87;;;8.45;36.81
74334;BME280;62753;40.394;-80.022;2023-11-21T05:46:43;98005.39;;;7.79;37.32
74334;BME280;62753;40.394;-80.022;2023-11-21T05:49:08;98008.11;;;8.06;36.93
74334;BME280;62753;40.394;-80.022;2023-11-21T05:51:34;98004.33;;;7.53;39.02
74334;BME280;62753;40.394;-80.022;2023-11-21T05:53:58;98003.67;;;7.94;38.23
74334;BME280;62753;40.394;-80.022;2023-11-21T05:56:24;98001.52;;;8.12;37.56
74334;BME280;62753;40.394;-80.022;2023-11-21T05:58:49;97995.19;;;7.98;37.69
74334;BME280;62753;40.394;-80.022;2023-11-21T06:01:14;97983.30;;;7.87;37.53
74334;BME280;62753;40.394;-80.022;2023-11-21T06:03:40;97974.44;;;7.79;37.90
74334;BME280;62753;40.394;-80.022;2023-11-21T06:06:07;97968.89;;;7.94;37.71
74334;BME280;62753;40.394;-80.022;2023-11-21T06:08:31;97963.53;;;7.68;38.25
74334;BME280;62753;40.394;-80.022;2023-11-21T06:10:59;97961.28;;;6.83;39.77
74334;BME280;62753;40.394;-80.022;2023-11-21T06:13:22;97959.56;;;7.20;39.79
74334;BME280;62753;40.394;-80.022;2023-11-21T06:15:48;97957.51;;;7.34;38.75
74334;BME280;62753;40.394;-80.022;2023-11-21T06:18:13;97952.84;;;7.14;39.62
74334;BME280;62753;40.394;-80.022;2023-11-21T06:20:38;97945.09;;;7.44;39.18
74334;BME280;62753;40.394;-80.022;2023-11-21T06:23:04;97936.22;;;7.44;38.83
74334;BME280;62753;40.394;-80.022;2023-11-21T06:25:30;97936.67;;;6.31;40.85
74334;BME280;62753;40.394;-80.022;2023-11-21T06:27:56;97927.18;;;6.72;41.24
74334;BME280;62753;40.394;-80.022;2023-11-21T06:30:21;97911.17;;;6.78;40.46
74334;BME280;62753;40.394;-80.022;2023-11-21T06:32:46;97905.42;;;7.04;40.03
74334;BME280;62753;40.394;-80.022;2023-11-21T06:35:12;97898.86;;;7.23;38.63
74334;BME280;62753;40.394;-80.022;2023-11-21T06:37:38;97893.37;;;7.06;39.06
74334;BME280;62753;40.394;-80.022;2023-11-21T06:40:04;97896.73;;;7.46;38.48
74334;BME280;62753;40.394;-80.022;2023-11-21T06:42:28;97889.53;;;7.87;38.66
74334;BME280;62753;40.394;-80.022;2023-11-21T06:44:53;97885.09;;;7.32;39.21
74334;BME280;62753;40.394;-80.022;2023-11-21T06:47:19;97895.54;;;7.01;39.31
74334;BME280;62753;40.394;-80.022;2023-11-21T06:49:44;97880.25;;;7.59;38.58
74334;BME280;62753;40.394;-80.022;2023-11-21T06:52:10;97869.69;;;6.99;38.82
74334;BME280;62753;40.394;-80.022;2023-11-21T06:54:37;97862.00;;;6.86;39.05
74334;BME280;62753;40.394;-80.022;2023-11-21T06:57:01;97857.81;;;7.27;39.83
74334;BME280;62753;40.394;-80.022;2023-11-21T06:59:29;97867.29;;;6.90;39.63
74334;BME280;62753;40.394;-80.022;2023-11-21T07:01:52;97876.43;;;7.48;38.73
74334;BME280;62753;40.394;-80.022;2023-11-21T07:04:18;97889.63;;;7.58;38.06
74334;BME280;62753;40.394;-80.022;2023-11-21T07:06:43;97893.39;;;7.74;38.38
74334;BME280;62753;40.394;-80.022;2023-11-21T07:09:09;97890.09;;;7.62;38.55
74334;BME280;62753;40.394;-80.022;2023-11-21T07:11:34;97892.22;;;7.49;38.62
74334;BME280;62753;40.394;-80.022;2023-11-21T07:14:00;97893.28;;;6.92;38.81
74334;BME280;62753;40.394;-80.022;2023-11-21T07:16:26;97886.55;;;7.27;38.62
74334;BME280;62753;40.394;-80.022;2023-11-21T07:18:52;97881.09;;;7.39;38.83
74334;BME280;62753;40.394;-80.022;2023-11-21T07:21:17;97874.16;;;7.80;38.42
74334;BME280;62753;40.394;-80.022;2023-11-21T07:23:42;97871.06;;;7.44;39.00
74334;BME280;62753;40.394;-80.022;2023-11-21T07:26:07;97863.40;;;7.57;37.76
74334;BME280;62753;40.394;-80.022;2023-11-21T07:28:45;97856.83;;;7.61;38.47
74334;BME280;62753;40.394;-80.022;2023-11-21T07:31:03;97859.98;;;7.46;38.18
74334;BME280;62753;40.394;-80.022;2023-11-21T07:33:24;97859.00;;;7.57;38.01
74334;BME280;62753;40.394;-80.022;2023-11-21T07:35:49;97870.16;;;7.37;39.43
74334;BME280;62753;40.394;-80.022;2023-11-21T07:38:14;97857.08;;;7.43;38.95
74334;BME280;62753;40.394;-80.022;2023-11-21T07:40:40;97843.61;;;6.74;40.45
74334;BME280;62753;40.394;-80.022;2023-11-21T07:43:05;97849.18;;;7.27;39.52
74334;BME280;62753;40.394;-80.022;2023-11-21T07:45:31;97841.61;;;7.20;39.72
74334;BME280;62753;40.394;-80.022;2023-11-21T07:47:56;97844.55;;;7.10;39.32
74334;BME280;62753;40.394;-80.022;2023-11-21T07:50:22;97831.01;;;7.17;40.32
74334;BME280;62753;40.394;-80.022;2023-11-21T07:52:47;97822.93;;;7.01;40.61
74334;BME280;62753;40.394;-80.022;2023-11-21T07:55:17;97825.57;;;7.45;38.82
74334;BME280;62753;40.394;-80.022;2023-11-21T07:57:37;97821.50;;;8.02;37.79
74334;BME280;62753;40.394;-80.022;2023-11-21T08:00:03;97825.99;;;7.75;37.81
74334;BME280;62753;40.394;-80.022;2023-11-21T08:02:29;97816.29;;;7.45;38.70
74334;BME280;62753;40.394;-80.022;2023-11-21T08:04:54;97810.84;;;7.71;38.56
74334;BME280;62753;40.394;-80.022;2023-11-21T08:07:20;97807.03;;;7.38;39.15
74334;BME280;62753;40.394;-80.022;2023-11-21T08:09:46;97792.57;;;7.50;39.44
74334;BME280;62753;40.394;-80.022;2023-11-21T08:12:11;97784.89;;;7.39;38.62
74334;BME280;62753;40.394;-80.022;2023-11-21T08:14:37;97775.47;;;6.88;40.03
74334;BME280;62753;40.394;-80.022;2023-11-21T08:17:02;97761.50;;;7.20;40.10
74334;BME280;62753;40.394;-80.022;2023-11-21T08:19:27;97757.51;;;7.28;40.43
74334;BME280;62753;40.394;-80.022;2023-11-21T08:21:53;97758.03;;;6.85;40.31
74334;BME280;62753;40.394;-80.022;2023-11-21T08:24:18;97745.63;;;7.15;40.68
74334;BME280;62753;40.394;-80.022;2023-11-21T08:26:43;97745.35;;;6.91;40.32
74334;BME280;62753;40.394;-80.022;2023-11-21T08:29:08;97741.21;;;6.73;41.09
74334;BME280;62753;40.394;-80.022;2023-11-21T08:31:34;97737.25;;;7.14;40.48
74334;BME280;62753;40.394;-80.022;2023-11-21T08:34:00;97722.30;;;7.57;38.67
74334;BME280;62753;40.394;-80.022;2023-11-21T08:36:26;97729.24;;;6.87;39.63
74334;BME280;62753;40.394;-80.022;2023-11-21T08:38:51;97735.46;;;7.67;38.91
74334;BME280;62753;40.394;-80.022;2023-11-21T08:41:15;97737.22;;;7.44;38.32
74334;BME280;62753;40.394;-80.022;2023-11-21T08:43:41;97732.76;;;7.51;39.06
74334;BME280;62753;40.394;-80.022;2023-11-21T08:46:07;97736.54;;;7.50;38.57
74334;BME280;62753;40.394;-80.022;2023-11-21T08:48:32;97732.68;;;7.86;37.47
74334;BME280;62753;40.394;-80.022;2023-11-21T08:50:58;97724.58;;;8.39;36.56
74334;BME280;62753;40.394;-80.022;2023-11-21T08:53:23;97724.56;;;8.74;36.99
74334;BME280;62753;40.394;-80.022;2023-11-21T08:55:48;97712.56;;;8.76;35.92
74334;BME280;62753;40.394;-80.022;2023-11-21T08:58:13;97701.42;;;8.64;36.37
74334;BME280;62753;40.394;-80.022;2023-11-21T09:00:40;97697.55;;;9.22;36.44
74334;BME280;62753;40.394;-80.022;2023-11-21T09:03:04;97696.11;;;8.67;37.19
74334;BME280;62753;40.394;-80.022;2023-11-21T09:05:29;97687.80;;;8.74;37.34
74334;BME280;62753;40.394;-80.022;2023-11-21T09:07:55;97684.15;;;8.19;39.46
74334;BME280;62753;40.394;-80.022;2023-11-21T09:10:20;97681.82;;;8.41;38.52
74334;BME280;62753;40.394;-80.022;2023-11-21T09:12:46;97678.30;;;7.61;39.76
74334;BME280;62753;40.394;-80.022;2023-11-21T09:15:11;97676.54;;;7.48;41.33
74334;BME280;62753;40.394;-80.022;2023-11-21T09:17:36;97668.58;;;7.99;41.76
74334;BME280;62753;40.394;-80.022;2023-11-21T09:20:03;97673.22;;;6.96;43.59
74334;BME280;62753;40.394;-80.022;2023-11-21T09:22:27;97676.37;;;7.69;43.85
74334;BME280;62753;40.394;-80.022;2023-11-21T09:24:53;97678.36;;;7.40;43.87
74334;BME280;62753;40.394;-80.022;2023-11-21T09:27:20;97673.01;;;7.68;43.59
74334;BME280;62753;40.394;-80.022;2023-11-21T09:29:44;97667.29;;;7.83;43.73
74334;BME280;62753;40.394;-80.022;2023-11-21T09:32:10;97665.84;;;8.02;43.57
74334;BME280;62753;40.394;-80.022;2023-11-21T09:34:35;97656.81;;;7.75;43.41
74334;BME280;62753;40.394;-80.022;2023-11-21T09:37:00;97653.90;;;7.59;42.70
74334;BME280;62753;40.394;-80.022;2023-11-21T09:39:26;97645.94;;;8.75;41.21
74334;BME280;62753;40.394;-80.022;2023-11-21T09:41:56;97651.55;;;9.11;40.26
74334;BME280;62753;40.394;-80.022;2023-11-21T09:44:19;97661.85;;;8.31;41.40
74334;BME280;62753;40.394;-80.022;2023-11-21T09:46:43;97651.85;;;8.93;40.96
74334;BME280;62753;40.394;-80.022;2023-11-21T09:49:09;97656.04;;;9.31;41.27
74334;BME280;62753;40.394;-80.022;2023-11-21T09:51:34;97660.29;;;8.53;41.53
74334;BME280;62753;40.394;-80.022;2023-11-21T09:54:00;97653.01;;;8.34;43.50
74334;BME280;62753;40.394;-80.022;2023-11-21T09:56:26;97649.24;;;8.28;43.10
74334;BME280;62753;40.394;-80.022;2023-11-21T09:58:52;97643.49;;;8.14;44.45
74334;BME280;62753;40.394;-80.022;2023-11-21T10:01:17;97642.73;;;8.12;57.65
74334;BME280;62753;40.394;-80.022;2023-11-21T10:03:42;97642.43;;;7.84;45.53
74334;BME280;62753;40.394;-80.022;2023-11-21T10:06:08;97646.33;;;7.16;47.85
74334;BME280;62753;40.394;-80.022;2023-11-21T10:08:34;97657.82;;;6.77;49.72
74334;BME280;62753;40.394;-80.022;2023-11-21T10:10:59;97682.48;;;6.74;50.96
74334;BME280;62753;40.394;-80.022;2023-11-21T10:13:24;97696.92;;;6.71;49.07
74334;BME280;62753;40.394;-80.022;2023-11-21T10:15:51;97698.90;;;7.14;48.65
74334;BME280;62753;40.394;-80.022;2023-11-21T10:18:16;97702.38;;;7.31;48.12
74334;BME280;62753;40.394;-80.022;2023-11-21T10:20:41;97686.14;;;7.46;48.70
74334;BME280;62753;40.394;-80.022;2023-11-21T10:23:06;97675.82;;;7.51;47.04
74334;BME280;62753;40.394;-80.022;2023-11-21T10:25:32;97670.41;;;7.45;48.53
74334;BME280;62753;40.394;-80.022;2023-11-21T10:27:59;97663.24;;;6.90;49.28
74334;BME280;62753;40.394;-80.022;2023-11-21T10:30:24;97662.95;;;6.61;50.02
74334;BME280;62753;40.394;-80.022;2023-11-21T10:32:48;97669.61;;;7.25;49.10
74334;BME280;62753;40.394;-80.022;2023-11-21T10:35:13;97666.55;;;7.43;48.05
74334;BME280;62753;40.394;-80.022;2023-11-21T10:37:40;97662.79;;;7.88;48.06
74334;BME280;62753;40.394;-80.022;2023-11-21T10:40:06;97673.16;;;7.13;49.52
74334;BME280;62753;40.394;-80.022;2023-11-21T10:42:29;97667.91;;;7.40;48.39
74334;BME280;62753;40.394;-80.022;2023-11-21T10:44:55;97667.58;;;7.67;47.12
74334;BME280;62753;40.394;-80.022;2023-11-21T10:47:20;97665.24;;;7.44;47.25
74334;BME280;62753;40.394;-80.022;2023-11-21T10:49:48;97650.54;;;8.19;46.34
74334;BME280;62753;40.394;-80.022;2023-11-21T10:52:13;97640.31;;;7.92;46.62
74334;BME280;62753;40.394;-80.022;2023-11-21T10:54:38;97637.55;;;7.77;47.26
74334;BME280;62753;40.394;-80.022;2023-11-21T10:57:04;97620.30;;;8.16;47.00
74334;BME280;62753;40.394;-80.022;2023-11-21T10:59:29;97608.33;;;7.03;48.32
74334;BME280;62753;40.394;-80.022;2023-11-21T11:01:55;97593.25;;;7.77;47.49
74334;BME280;62753;40.394;-80.022;2023-11-21T11:04:19;97587.99;;;7.08;49.00
74334;BME280;62753;40.394;-80.022;2023-11-21T11:06:45;97582.64;;;7.20;48.63
74334;BME280;62753;40.394;-80.022;2023-11-21T11:09:13;97568.69;;;7.46;48.86
74334;BME280;62753;40.394;-80.022;2023-11-21T11:11:36;97565.96;;;6.84;49.35
74334;BME280;62753;40.394;-80.022;2023-11-21T11:14:01;97547.85;;;7.34;49.41
74334;BME280;62753;40.394;-80.022;2023-11-21T11:16:28;97544.29;;;6.90;49.13
74334;BME280;62753;40.394;-80.022;2023-11-21T11:18:52;97552.04;;;6.95;48.96
74334;BME280;62753;40.394;-80.022;2023-11-21T11:21:26;97556.75;;;7.67;48.63
74334;BME280;62753;40.394;-80.022;2023-11-21T11:23:54;97558.33;;;7.75;48.94
74334;BME280;62753;40.394;-80.022;2023-11-21T11:26:16;97563.71;;;7.71;48.19
74334;BME280;62753;40.394;-80.022;2023-11-21T11:28:42;97561.10;;;7.81;47.54
74334;BME280;62753;40.394;-80.022;2023-11-21T11:31:05;97571.73;;;7.39;48.06
74334;BME280;62753;40.394;-80.022;2023-11-21T11:33:30;97563.76;;;6.79;48.32
74334;BME280;62753;40.394;-80.022;2023-11-21T11:35:55;97569.84;;;7.46;48.34
74334;BME280;62753;40.394;-80.022;2023-11-21T11:38:15;97573.31;;;7.78;47.37
74334;BME280;62753;40.394;-80.022;2023-11-21T11:40:41;97581.80;;;8.11;46.68
74334;BME280;62753;40.394;-80.022;2023-11-21T11:43:06;97586.04;;;8.59;45.28
74334;BME280;62753;40.394;-80.022;2023-11-21T11:45:33;97585.29;;;8.11;45.54
74334;BME280;62753;40.394;-80.022;2023-11-21T11:47:57;97573.08;;;8.42;45.26
74334;BME280;62753;40.394;-80.022;2023-11-21T11:50:23;97568.05;;;7.87;46.45
74334;BME280;62753;40.394;-80.022;2023-11-21T11:52:49;97565.68;;;8.26;45.96
74334;BME280;62753;40.394;-80.022;2023-11-21T11:55:15;97565.19;;;7.72;46.06
74334;BME280;62753;40.394;-80.022;2023-11-21T11:57:40;97561.26;;;8.07;45.61
74334;BME280;62753;40.394;-80.022;2023-11-21T12:00:12;97562.12;;;8.43;45.28
74334;BME280;62753;40.394;-80.022;2023-11-21T12:02:31;97554.70;;;8.15;45.25
74334;BME280;62753;40.394;-80.022;2023-11-21T12:04:57;97554.58;;;8.13;46.12
74334;BME280;62753;40.394;-80.022;2023-11-21T12:07:22;97563.63;;;8.19;45.33
74334;BME280;62753;40.394;-80.022;2023-11-21T12:09:47;97577.60;;;7.79;46.80
74334;BME280;62753;40.394;-80.022;2023-11-21T12:12:14;97582.39;;;7.33;46.66
74334;BME280;62753;40.394;-80.022;2023-11-21T12:14:39;97583.12;;;8.20;45.49
74334;BME280;62753;40.394;-80.022;2023-11-21T12:17:05;97613.59;;;8.31;45.55
74334;BME280;62753;40.394;-80.022;2023-11-21T12:19:30;97633.09;;;8.02;45.31
74334;BME280;62753;40.394;-80.022;2023-11-21T12:21:55;97633.13;;;7.81;45.83
74334;BME280;62753;40.394;-80.022;2023-11-21T12:24:21;97636.93;;;8.01;45.56
74334;BME280;62753;40.394;-80.022;2023-11-21T12:26:46;97630.48;;;8.02;44.80
74334;BME280;62753;40.394;-80.022;2023-11-21T12:29:12;97627.96;;;7.56;45.47
74334;BME280;62753;40.394;-80.022;2023-11-21T12:31:37;97620.58;;;7.94;44.27
74334;BME280;62753;40.394;-80.022;2023-11-21T12:34:03;97626.11;;;7.84;46.13
74334;BME280;62753;40.394;-80.022;2023-11-21T12:36:29;97625.32;;;7.79;46.92
74334;BME280;62753;40.394;-80.022;2023-11-21T12:38:54;97612.32;;;7.46;47.45